createdAt,value
2022-08-25T00:01:32.482Z,18.31
2022-08-25T00:04:02.271Z,18.31
2022-08-25T00:06:31.481Z,18.30
2022-08-25T00:09:00.079Z,18.30
2022-08-25T00:11:30.461Z,18.30
2022-08-25T00:14:06.160Z,18.29
2022-08-25T00:16:33.810Z,18.30
2022-08-25T00:19:06.357Z,18.30
2022-08-25T00:21:34.491Z,18.28
2022-08-25T00:24:02.930Z,18.26
2022-08-25T00:26:31.376Z,18.24
2022-08-25T00:29:02.016Z,18.22
2022-08-25T00:31:38.223Z,18.17
2022-08-25T00:34:14.938Z,18.13
2022-08-25T00:36:42.969Z,18.08
2022-08-25T00:39:11.229Z,18.06
2022-08-25T00:41:42.891Z,18.05
2022-08-25T00:44:13.349Z,18.02
2022-08-25T00:46:45.421Z,18.02
2022-08-25T00:49:47.848Z,18.00
2022-08-25T00:52:25.817Z,18.00
2022-08-25T00:55:07.780Z,17.99
2022-08-25T00:57:57.686Z,17.96
2022-08-25T01:00:38.336Z,17.98
2022-08-25T01:03:07.120Z,17.96
2022-08-25T01:05:35.464Z,17.98
2022-08-25T01:08:06.897Z,18.02
2022-08-25T01:10:37.416Z,18.03
2022-08-25T01:13:16.478Z,18.00
2022-08-25T01:15:49.374Z,18.01
2022-08-25T01:18:17.001Z,18.06
2022-08-25T01:20:46.871Z,18.05
2022-08-25T01:23:14.372Z,18.02
2022-08-25T01:25:51.721Z,18.05
2022-08-25T01:28:20.568Z,18.02
2022-08-25T01:30:49.010Z,18.00
2022-08-25T01:33:19.546Z,18.00
2022-08-25T01:35:48.288Z,17.97
2022-08-25T01:38:16.219Z,17.93
2022-08-25T01:40:44.079Z,17.86
2022-08-25T01:43:11.873Z,17.81
2022-08-25T01:45:41.952Z,17.74
2022-08-25T01:48:11.109Z,17.78
2022-08-25T01:50:40.450Z,17.82
2022-08-25T01:53:27.082Z,17.82
2022-08-25T01:56:02.679Z,17.89
2022-08-25T01:58:34.426Z,17.92
2022-08-25T02:01:05.855Z,17.84
2022-08-25T02:03:38.359Z,17.85
2022-08-25T02:06:16.606Z,17.82
2022-08-25T02:08:44.558Z,17.77
2022-08-25T02:11:13.964Z,17.75
2022-08-25T02:13:42.691Z,17.70
2022-08-25T02:16:15.212Z,17.68
2022-08-25T02:18:42.837Z,17.64
2022-08-25T02:21:11.547Z,17.58
2022-08-25T02:23:39.066Z,17.55
2022-08-25T02:26:06.578Z,17.62
2022-08-25T02:28:34.634Z,17.65
2022-08-25T02:31:02.800Z,17.70
2022-08-25T02:33:30.430Z,17.77
2022-08-25T02:36:02.597Z,17.75
2022-08-25T02:38:30.279Z,17.74
2022-08-25T02:40:59.967Z,17.75
2022-08-25T02:43:28.425Z,17.74
2022-08-25T02:45:56.577Z,17.77
2022-08-25T02:48:24.619Z,17.77
2022-08-25T02:50:53.145Z,17.81
2022-08-25T02:53:21.764Z,17.82
2022-08-25T02:55:49.364Z,17.81
2022-08-25T02:58:16.967Z,17.80
2022-08-25T03:00:46.178Z,17.79
2022-08-25T03:03:14.467Z,17.77
2022-08-25T03:05:42.173Z,17.75
2022-08-25T03:08:12.049Z,17.72
2022-08-25T03:10:39.719Z,17.69
2022-08-25T03:13:07.301Z,17.67
2022-08-25T03:15:37.952Z,17.65
2022-08-25T03:18:08.619Z,17.64
2022-08-25T03:20:36.325Z,17.65
2022-08-25T03:23:05.749Z,17.63
2022-08-25T03:25:52.315Z,17.65
2022-08-25T03:28:20.575Z,17.66
2022-08-25T03:30:56.105Z,17.64
2022-08-25T03:33:23.898Z,17.68
2022-08-25T03:35:51.369Z,17.68
2022-08-25T03:38:18.877Z,17.69
2022-08-25T03:40:46.389Z,17.67
2022-08-25T03:43:13.935Z,17.69
2022-08-25T03:45:43.462Z,17.68
2022-08-25T03:48:11.125Z,17.65
2022-08-25T03:50:50.719Z,17.59
2022-08-25T03:53:20.719Z,17.55
2022-08-25T03:55:48.303Z,17.53
2022-08-25T03:58:15.957Z,17.52
2022-08-25T04:00:43.462Z,17.56
2022-08-25T04:03:11.406Z,17.62
2022-08-25T04:05:40.069Z,17.66
2022-08-25T04:08:08.169Z,17.72
2022-08-25T04:10:37.169Z,17.67
2022-08-25T04:13:06.389Z,17.61
2022-08-25T04:15:34.090Z,17.59
2022-08-25T04:18:01.723Z,17.57
2022-08-25T04:20:29.360Z,17.52
2022-08-25T04:23:00.714Z,17.57
2022-08-25T04:25:28.335Z,17.54
2022-08-25T04:27:55.877Z,17.59
2022-08-25T04:30:23.759Z,17.67
2022-08-25T04:32:51.629Z,17.81
2022-08-25T04:35:19.180Z,17.96
2022-08-25T04:37:48.891Z,18.18
2022-08-25T04:40:16.607Z,18.46
2022-08-25T04:42:45.165Z,18.66
2022-08-25T04:45:15.799Z,18.92
2022-08-25T04:47:43.245Z,19.18
2022-08-25T04:50:11.299Z,19.41
2022-08-25T04:52:38.824Z,19.66
2022-08-25T04:55:06.675Z,19.94
2022-08-25T04:57:34.468Z,20.25
2022-08-25T05:00:02.597Z,20.23
2022-08-25T05:02:30.028Z,20.42
2022-08-25T05:04:57.759Z,20.54
2022-08-25T05:07:25.245Z,20.60
2022-08-25T05:09:52.718Z,20.77
2022-08-25T05:12:20.998Z,21.07
2022-08-25T05:14:48.695Z,21.49
2022-08-25T05:17:16.197Z,21.82
2022-08-25T05:19:44.040Z,22.10
2022-08-25T05:22:11.596Z,22.50
2022-08-25T05:24:39.139Z,22.73
2022-08-25T05:27:06.681Z,23.04
2022-08-25T05:29:35.785Z,23.31
2022-08-25T05:32:03.885Z,23.69
2022-08-25T05:34:31.468Z,23.94
2022-08-25T05:37:00.331Z,23.76
2022-08-25T05:39:27.919Z,23.62
2022-08-25T05:41:55.474Z,23.62
2022-08-25T05:44:22.970Z,23.39
2022-08-25T05:46:51.455Z,23.43
2022-08-25T05:49:19.257Z,23.58
2022-08-25T05:51:46.798Z,23.55
2022-08-25T05:54:14.359Z,23.40
2022-08-25T05:56:41.811Z,23.39
2022-08-25T05:59:09.830Z,23.49
2022-08-25T06:01:56.020Z,23.80
2022-08-25T06:04:24.129Z,23.61
2022-08-25T06:06:54.081Z,23.70
2022-08-25T06:09:23.239Z,23.66
2022-08-25T06:11:54.696Z,23.58
2022-08-25T06:14:24.120Z,23.50
2022-08-25T06:16:52.490Z,23.61
2022-08-25T06:19:21.360Z,23.97
2022-08-25T06:21:49.431Z,23.96
2022-08-25T06:24:17.259Z,24.28
2022-08-25T06:26:44.679Z,24.47
2022-08-25T06:29:14.289Z,24.45
2022-08-25T06:31:42.959Z,24.30
2022-08-25T06:34:11.483Z,24.62
2022-08-25T06:36:39.400Z,24.63
2022-08-25T06:39:07.376Z,24.61
2022-08-25T06:41:37.569Z,24.51
2022-08-25T06:44:06.079Z,24.34
2022-08-25T06:46:36.319Z,24.25
2022-08-25T06:49:05.741Z,24.20
2022-08-25T06:51:36.338Z,24.51
2022-08-25T06:54:07.018Z,25.06
2022-08-25T06:56:34.670Z,25.52
2022-08-25T06:59:06.382Z,26.18
2022-08-25T07:01:34.826Z,26.51
2022-08-25T07:04:10.282Z,26.84
2022-08-25T07:06:40.580Z,27.12
2022-08-25T07:09:12.666Z,27.00
2022-08-25T07:11:44.199Z,26.59
2022-08-25T07:14:14.016Z,26.99
2022-08-25T07:16:42.462Z,27.38
2022-08-25T07:19:16.320Z,27.28
2022-08-25T07:21:47.033Z,26.55
2022-08-25T07:24:15.329Z,25.66
2022-08-25T07:26:43.800Z,25.63
2022-08-25T07:29:18.349Z,25.36
2022-08-25T07:31:47.669Z,25.02
2022-08-25T07:34:34.017Z,25.28
2022-08-25T07:37:05.185Z,25.04
2022-08-25T07:39:34.199Z,24.42
2022-08-25T07:42:01.771Z,24.86
2022-08-25T07:44:29.589Z,24.75
2022-08-25T07:46:57.564Z,24.55
2022-08-25T07:49:26.958Z,24.26
2022-08-25T07:52:06.454Z,23.86
2022-08-25T07:54:37.884Z,23.71
2022-08-25T07:57:08.601Z,23.55
2022-08-25T07:59:42.987Z,23.52
2022-08-25T08:02:18.141Z,23.04
2022-08-25T08:04:52.030Z,22.78
2022-08-25T08:07:22.797Z,22.62
2022-08-25T08:10:05.251Z,22.73
2022-08-25T08:12:39.742Z,22.80
2022-08-25T08:15:10.403Z,22.82
2022-08-25T08:17:39.826Z,22.89
2022-08-25T08:20:09.475Z,23.12
2022-08-25T08:22:39.268Z,23.37
2022-08-25T08:25:08.638Z,23.44
2022-08-25T08:27:39.589Z,23.48
2022-08-25T08:30:07.630Z,23.72
2022-08-25T08:33:05.871Z,23.90
2022-08-25T08:35:22.885Z,23.74
2022-08-25T08:37:52.539Z,23.74
2022-08-25T08:40:22.420Z,23.57
2022-08-25T08:43:18.524Z,23.50
2022-08-25T08:45:53.774Z,23.48
2022-08-25T08:48:45.424Z,23.71
2022-08-25T08:51:26.153Z,23.59
2022-08-25T08:54:06.665Z,23.58
2022-08-25T08:56:48.388Z,23.71
2022-08-25T08:59:29.979Z,23.96
2022-08-25T09:02:02.052Z,23.87
2022-08-25T09:04:35.358Z,24.21
2022-08-25T09:07:05.139Z,24.86
2022-08-25T09:09:36.293Z,24.99
2022-08-25T09:12:28.619Z,25.08
2022-08-25T09:15:23.737Z,25.42
2022-08-25T09:18:21.179Z,25.71
2022-08-25T09:20:59.764Z,25.94
2022-08-25T09:23:52.519Z,25.81
2022-08-25T09:26:20.118Z,26.15
2022-08-25T09:29:16.395Z,25.90
2022-08-25T09:31:45.479Z,25.34
2022-08-25T09:34:19.049Z,25.12
2022-08-25T09:36:48.825Z,25.20
2022-08-25T09:39:17.120Z,25.17
2022-08-25T09:41:51.532Z,25.63
2022-08-25T09:44:28.131Z,25.34
2022-08-25T09:47:02.154Z,25.52
2022-08-25T09:49:42.763Z,25.85
2022-08-25T09:52:28.409Z,26.13
2022-08-25T09:54:57.978Z,26.07
2022-08-25T09:57:52.728Z,26.80
2022-08-25T10:00:23.614Z,27.07
2022-08-25T10:03:22.817Z,26.50
2022-08-25T10:05:56.300Z,26.24
2022-08-25T10:08:32.448Z,26.37
2022-08-25T10:11:02.825Z,25.91
2022-08-25T10:13:46.982Z,25.50
2022-08-25T10:16:36.299Z,25.49
2022-08-25T10:19:22.240Z,25.70
2022-08-25T10:22:32.349Z,26.29
2022-08-25T10:25:00.587Z,26.19
2022-08-25T10:27:39.348Z,26.36
2022-08-25T10:30:24.328Z,26.56
2022-08-25T10:33:00.890Z,26.57
2022-08-25T10:35:45.689Z,26.27
2022-08-25T10:38:35.499Z,26.26
2022-08-25T10:41:21.529Z,26.01
2022-08-25T10:44:33.666Z,26.22
2022-08-25T10:47:34.938Z,26.45
2022-08-25T10:50:10.714Z,26.59
2022-08-25T10:53:06.556Z,26.29
2022-08-25T10:55:48.997Z,25.85
2022-08-25T10:58:47.345Z,25.17
2022-08-25T11:01:28.827Z,25.16
2022-08-25T11:04:07.634Z,25.18
2022-08-25T11:06:42.519Z,25.51
2022-08-25T11:09:16.183Z,25.95
2022-08-25T11:11:49.517Z,26.14
2022-08-25T11:14:35.189Z,26.04
2022-08-25T11:17:20.369Z,25.71
2022-08-25T11:19:51.509Z,26.19
2022-08-25T11:22:27.710Z,26.59
2022-08-25T11:25:18.634Z,26.34
2022-08-25T11:28:23.356Z,25.75
2022-08-25T11:30:53.355Z,25.31
2022-08-25T11:33:25.399Z,25.53
2022-08-25T11:35:59.317Z,25.60
2022-08-25T11:38:56.762Z,25.59
2022-08-25T11:41:57.072Z,25.84
2022-08-25T11:45:02.772Z,25.53
2022-08-25T11:47:31.599Z,25.15
2022-08-25T11:50:31.807Z,25.09
2022-08-25T11:53:11.607Z,25.10
2022-08-25T11:55:52.400Z,25.30
2022-08-25T11:58:31.896Z,25.95
2022-08-25T12:01:02.217Z,26.26
2022-08-25T12:03:32.492Z,25.96
2022-08-25T12:06:25.159Z,25.56
2022-08-25T12:09:01.465Z,25.49
2022-08-25T12:11:38.119Z,25.44
2022-08-25T12:14:16.404Z,25.53
2022-08-25T12:17:05.513Z,25.52
2022-08-25T12:19:36.347Z,25.55
2022-08-25T12:22:04.161Z,25.88
2022-08-25T12:24:48.186Z,26.11
2022-08-25T12:27:19.572Z,26.06
2022-08-25T12:29:58.978Z,26.03
2022-08-25T12:32:38.587Z,25.75
2022-08-25T12:35:24.229Z,26.15
2022-08-25T12:37:59.099Z,26.25
2022-08-25T12:40:35.402Z,26.45
2022-08-25T12:43:37.625Z,26.65
2022-08-25T12:46:25.889Z,27.08
2022-08-25T12:49:12.039Z,27.28
2022-08-25T12:52:20.559Z,27.10
2022-08-25T12:54:54.728Z,27.25
2022-08-25T12:57:24.980Z,27.37
2022-08-25T12:59:59.869Z,27.30
2022-08-25T13:02:53.530Z,27.22
2022-08-25T13:05:42.009Z,27.28
2022-08-25T13:08:33.683Z,27.66
2022-08-25T13:11:49.175Z,27.57
2022-08-25T13:14:26.990Z,27.22
2022-08-25T13:16:58.303Z,26.77
2022-08-25T13:19:28.095Z,26.71
2022-08-25T13:22:16.399Z,26.93
2022-08-25T13:24:47.532Z,27.04
2022-08-25T13:27:28.244Z,27.11
2022-08-25T13:29:59.158Z,27.08
2022-08-25T13:32:32.557Z,27.07
2022-08-25T13:35:21.439Z,27.16
2022-08-25T13:37:50.876Z,27.51
2022-08-25T13:40:28.035Z,27.60
2022-08-25T13:43:01.254Z,27.37
2022-08-25T13:45:41.317Z,27.40
2022-08-25T13:48:22.754Z,27.37
2022-08-25T13:50:54.510Z,27.26
2022-08-25T13:53:26.000Z,27.35
2022-08-25T13:55:58.391Z,27.77
2022-08-25T13:58:38.754Z,28.17
2022-08-25T14:01:22.903Z,27.62
2022-08-25T14:04:50.853Z,27.22
2022-08-25T14:07:26.255Z,26.81
2022-08-25T14:10:08.839Z,26.53
2022-08-25T14:12:47.937Z,26.37
2022-08-25T14:15:17.252Z,26.38
2022-08-25T14:17:49.197Z,26.26
2022-08-25T14:20:25.777Z,26.20
2022-08-25T14:22:58.257Z,26.35
2022-08-25T14:25:28.359Z,26.50
2022-08-25T14:28:08.084Z,26.58
2022-08-25T14:30:39.991Z,26.37
2022-08-25T14:33:12.451Z,26.24
2022-08-25T14:35:42.131Z,26.21
2022-08-25T14:38:11.601Z,26.09
2022-08-25T14:40:39.962Z,26.06
2022-08-25T14:43:09.654Z,26.15
2022-08-25T14:45:41.173Z,26.21
2022-08-25T14:48:14.441Z,26.25
2022-08-25T14:50:42.336Z,26.30
2022-08-25T14:53:12.025Z,26.39
2022-08-25T14:55:39.940Z,26.58
2022-08-25T14:58:08.227Z,26.65
2022-08-25T15:00:44.645Z,26.31
2022-08-25T15:03:15.419Z,25.98
2022-08-25T15:05:43.020Z,25.86
2022-08-25T15:08:33.105Z,25.84
2022-08-25T15:11:00.998Z,25.80
2022-08-25T15:13:28.571Z,25.95
2022-08-25T15:15:58.047Z,26.02
2022-08-25T15:18:26.077Z,26.14
2022-08-25T15:20:53.555Z,26.25
2022-08-25T15:23:21.139Z,26.24
2022-08-25T15:25:52.661Z,26.20
2022-08-25T15:28:22.199Z,26.09
2022-08-25T15:30:51.030Z,26.00
2022-08-25T15:33:18.876Z,25.90
2022-08-25T15:35:46.562Z,25.88
2022-08-25T15:38:17.549Z,25.92
2022-08-25T15:40:44.999Z,25.93
2022-08-25T15:43:14.250Z,25.95
2022-08-25T15:45:41.759Z,25.95
2022-08-25T15:48:09.835Z,26.03
2022-08-25T15:50:38.571Z,26.06
2022-08-25T15:53:10.382Z,26.04
2022-08-25T15:55:40.509Z,25.99
2022-08-25T15:58:08.813Z,25.99
2022-08-25T16:00:37.826Z,26.01
2022-08-25T16:03:07.914Z,25.85
2022-08-25T16:05:37.388Z,25.70
2022-08-25T16:08:05.767Z,25.71
2022-08-25T16:10:39.307Z,25.69
2022-08-25T16:13:09.791Z,25.66
2022-08-25T16:15:39.077Z,25.58
2022-08-25T16:18:07.978Z,25.52
2022-08-25T16:20:36.346Z,25.46
2022-08-25T16:23:04.599Z,25.38
2022-08-25T16:25:32.767Z,25.36
2022-08-25T16:28:04.162Z,25.40
2022-08-25T16:30:31.648Z,25.32
2022-08-25T16:32:59.238Z,25.26
2022-08-25T16:35:28.618Z,25.20
2022-08-25T16:37:57.107Z,25.12
2022-08-25T16:40:26.595Z,25.04
2022-08-25T16:42:55.125Z,24.90
2022-08-25T16:45:22.879Z,24.78
2022-08-25T16:47:50.716Z,24.72
2022-08-25T16:50:18.221Z,24.69
2022-08-25T16:53:04.217Z,24.61
2022-08-25T16:55:39.442Z,24.54
2022-08-25T16:58:08.116Z,24.51
2022-08-25T17:00:37.890Z,24.48
2022-08-25T17:03:06.609Z,24.46
2022-08-25T17:05:41.639Z,24.44
2022-08-25T17:08:27.928Z,24.40
2022-08-25T17:11:17.738Z,24.31
2022-08-25T17:13:49.702Z,24.34
2022-08-25T17:16:21.402Z,24.24
2022-08-25T17:18:49.409Z,24.34
2022-08-25T17:21:24.357Z,24.42
2022-08-25T17:23:54.539Z,24.35
2022-08-25T17:26:27.709Z,24.22
2022-08-25T17:29:01.070Z,24.15
2022-08-25T17:31:29.985Z,24.17
2022-08-25T17:33:59.008Z,24.01
2022-08-25T17:36:27.526Z,23.93
2022-08-25T17:38:57.052Z,23.94
2022-08-25T17:41:25.142Z,23.79
2022-08-25T17:43:52.665Z,23.62
2022-08-25T17:46:21.776Z,23.64
2022-08-25T17:48:49.448Z,23.46
2022-08-25T17:51:17.182Z,23.38
2022-08-25T17:53:44.941Z,23.26
2022-08-25T17:56:18.660Z,23.13
2022-08-25T17:58:47.517Z,23.19
2022-08-25T18:01:18.454Z,23.21
2022-08-25T18:03:46.806Z,23.05
2022-08-25T18:06:16.050Z,22.87
2022-08-25T18:08:44.924Z,22.82
2022-08-25T18:11:20.446Z,22.77
2022-08-25T18:13:48.066Z,22.80
2022-08-25T18:16:18.741Z,22.84
2022-08-25T18:18:46.258Z,22.88
2022-08-25T18:21:16.847Z,22.71
2022-08-25T18:23:44.605Z,22.82
2022-08-25T18:26:13.989Z,22.83
2022-08-25T18:28:43.887Z,22.74
2022-08-25T18:31:13.219Z,22.70
2022-08-25T18:33:44.591Z,22.50
2022-08-25T18:36:13.660Z,22.35
2022-08-25T18:39:00.877Z,22.33
2022-08-25T18:41:35.189Z,22.43
2022-08-25T18:44:03.519Z,22.23
2022-08-25T18:46:31.159Z,22.16
2022-08-25T18:49:00.509Z,22.01
2022-08-25T18:51:27.958Z,21.92
2022-08-25T18:54:01.432Z,21.90
2022-08-25T18:56:29.910Z,21.84
2022-08-25T18:58:57.824Z,21.79
2022-08-25T19:01:25.485Z,21.90
2022-08-25T19:03:53.413Z,21.91
2022-08-25T19:06:21.004Z,21.97
2022-08-25T19:08:48.868Z,22.06
2022-08-25T19:11:17.513Z,22.10
2022-08-25T19:13:51.427Z,22.01
2022-08-25T19:16:35.640Z,21.99
2022-08-25T19:19:06.449Z,22.00
2022-08-25T19:21:35.062Z,21.99
2022-08-25T19:24:03.059Z,21.93
2022-08-25T19:26:31.806Z,21.88
2022-08-25T19:28:59.332Z,21.89
2022-08-25T19:31:27.872Z,21.84
2022-08-25T19:34:02.087Z,21.78
2022-08-25T19:36:30.747Z,21.75
2022-08-25T19:39:01.384Z,21.80
2022-08-25T19:41:31.467Z,21.84
2022-08-25T19:44:00.027Z,21.84
2022-08-25T19:46:32.344Z,21.78
2022-08-25T19:49:08.933Z,21.76
2022-08-25T19:51:44.163Z,21.85
2022-08-25T19:54:16.288Z,21.97
2022-08-25T19:56:54.406Z,22.02
2022-08-25T19:59:34.251Z,21.90
2022-08-25T20:02:11.141Z,21.84
2022-08-25T20:04:38.737Z,21.86
2022-08-25T20:07:07.797Z,21.86
2022-08-25T20:09:41.146Z,21.82
2022-08-25T20:12:10.661Z,21.77
2022-08-25T20:14:38.767Z,21.76
2022-08-25T20:17:23.311Z,21.70
2022-08-25T20:19:54.473Z,21.66
2022-08-25T20:22:26.177Z,21.60
2022-08-25T20:25:00.302Z,21.56
2022-08-25T20:27:33.868Z,21.52
2022-08-25T20:30:02.691Z,21.48
2022-08-25T20:32:33.142Z,21.46
2022-08-25T20:35:02.279Z,21.47
2022-08-25T20:37:30.997Z,21.48
2022-08-25T20:39:58.877Z,21.47
2022-08-25T20:42:26.466Z,21.47
2022-08-25T20:44:54.734Z,21.43
2022-08-25T20:47:22.828Z,21.41
2022-08-25T20:49:50.593Z,21.37
2022-08-25T20:52:19.686Z,21.36
2022-08-25T20:54:50.326Z,21.34
2022-08-25T20:57:25.485Z,21.31
2022-08-25T20:59:54.916Z,21.32
2022-08-25T21:02:24.063Z,21.30
2022-08-25T21:04:53.356Z,21.27
2022-08-25T21:07:23.906Z,21.25
2022-08-25T21:09:51.847Z,21.23
2022-08-25T21:12:19.967Z,21.25
2022-08-25T21:14:48.393Z,21.21
2022-08-25T21:17:19.138Z,21.19
2022-08-25T21:22:16.527Z,21.15
2022-08-25T21:24:45.033Z,21.09
2022-08-25T21:27:12.628Z,21.09
2022-08-25T21:29:44.741Z,21.10
2022-08-25T21:32:22.687Z,21.05
2022-08-25T21:34:54.354Z,21.02
2022-08-25T21:37:22.034Z,21.02
2022-08-25T21:39:49.807Z,21.03
2022-08-25T21:42:17.493Z,20.97
2022-08-25T21:44:45.235Z,20.93
2022-08-25T21:47:12.835Z,20.91
2022-08-25T21:49:40.401Z,20.88
2022-08-25T21:52:08.173Z,20.87
2022-08-25T21:54:35.722Z,20.84
2022-08-25T21:57:06.026Z,20.81
2022-08-25T21:59:36.896Z,20.87
2022-08-25T22:02:08.871Z,20.85
2022-08-25T22:04:38.923Z,20.88
2022-08-25T22:07:09.095Z,20.88
2022-08-25T22:09:37.144Z,20.88
2022-08-25T22:12:06.115Z,20.85
2022-08-25T22:14:34.323Z,20.80
2022-08-25T22:17:02.374Z,20.77
2022-08-25T22:19:30.004Z,20.73
2022-08-25T22:22:01.723Z,20.72
2022-08-25T22:24:29.254Z,20.75
2022-08-25T22:26:57.130Z,20.68
2022-08-25T22:29:26.192Z,20.65
2022-08-25T22:32:00.699Z,20.63
2022-08-25T22:34:34.701Z,20.60
2022-08-25T22:37:07.690Z,20.58
2022-08-25T22:39:36.173Z,20.57
2022-08-25T22:42:06.273Z,20.56
2022-08-25T22:44:33.673Z,20.56
2022-08-25T22:47:01.253Z,20.56
2022-08-25T22:49:29.534Z,20.56
2022-08-25T22:51:57.773Z,20.54
2022-08-25T22:54:25.669Z,20.55
2022-08-25T22:56:53.903Z,20.53
2022-08-25T22:59:22.199Z,20.52
2022-08-25T23:01:52.676Z,20.51
2022-08-25T23:04:22.916Z,20.51
2022-08-25T23:06:52.743Z,20.52
2022-08-25T23:09:21.012Z,20.52
2022-08-25T23:12:20.906Z,20.51
2022-08-25T23:14:50.369Z,20.58
2022-08-25T23:17:17.976Z,20.57
2022-08-25T23:19:46.688Z,20.55
2022-08-25T23:22:16.265Z,20.58
2022-08-25T23:24:47.445Z,20.56
2022-08-25T23:27:19.923Z,20.54
2022-08-25T23:29:49.397Z,20.53
2022-08-25T23:32:18.326Z,20.51
2022-08-25T23:34:46.999Z,20.45
2022-08-25T23:37:16.079Z,20.39
2022-08-25T23:39:47.495Z,20.35
2022-08-25T23:42:19.440Z,20.34
2022-08-25T23:44:48.189Z,20.30
2022-08-25T23:47:16.809Z,20.26
2022-08-25T23:49:44.539Z,20.23
2022-08-25T23:52:12.270Z,20.19
2022-08-25T23:54:39.811Z,20.16
2022-08-25T23:57:07.300Z,20.07
2022-08-25T23:59:38.262Z,20.08
